createdAt,value
2019-04-03T00:01:36.876Z,99761.62
2019-04-03T00:04:07.400Z,99768.38
2019-04-03T00:06:37.915Z,99769.30
2019-04-03T00:09:09.389Z,99761.02
2019-04-03T00:11:40.383Z,99759.05
2019-04-03T00:14:12.884Z,99757.87
2019-04-03T00:16:45.134Z,99754.88
2019-04-03T00:19:15.891Z,99752.09
2019-04-03T00:21:50.179Z,99752.72
2019-04-03T00:24:22.146Z,99755.72
2019-04-03T00:26:52.938Z,99757.37
2019-04-03T00:29:23.454Z,99759.02
2019-04-03T00:31:54.048Z,99761.51
2019-04-03T00:34:24.576Z,99761.09
2019-04-03T00:36:55.055Z,99757.42
2019-04-03T00:39:25.637Z,99756.28
2019-04-03T00:41:56.116Z,99758.59
2019-04-03T00:44:26.694Z,99760.91
2019-04-03T00:46:57.199Z,99757.84
2019-04-03T00:49:27.770Z,99759.68
2019-04-03T00:51:58.283Z,99754.78
2019-04-03T00:54:30.902Z,99760.51
2019-04-03T00:57:01.322Z,99758.20
2019-04-03T00:59:31.858Z,99752.67
2019-04-03T01:02:02.299Z,99755.13
2019-04-03T01:04:34.030Z,99751.83
2019-04-03T01:07:04.580Z,99761.33
2019-04-03T01:09:35.125Z,99759.63
2019-04-03T01:12:05.630Z,99759.55
2019-04-03T01:14:36.193Z,99768.89
2019-04-03T01:17:06.807Z,99773.31
2019-04-03T01:19:37.241Z,99772.61
2019-04-03T01:22:08.092Z,99773.56
2019-04-03T01:24:39.046Z,99767.26
2019-04-03T01:27:11.105Z,99776.11
2019-04-03T01:29:42.917Z,99781.75
2019-04-03T01:32:15.129Z,99775.73
2019-04-03T01:34:47.685Z,99773.70
2019-04-03T01:37:19.174Z,99768.72
2019-04-03T01:39:50.833Z,99764.52
2019-04-03T01:42:22.498Z,99759.11
2019-04-03T01:44:55.130Z,99750.78
2019-04-03T01:47:27.515Z,99753.64
2019-04-03T01:49:58.523Z,99754.62
2019-04-03T01:52:31.045Z,99758.77
2019-04-03T01:55:20.994Z,99760.27
2019-04-03T01:57:51.749Z,99764.47
2019-04-03T02:00:22.205Z,99769.52
2019-04-03T02:02:52.722Z,99766.78
2019-04-03T02:05:23.204Z,99771.44
2019-04-03T02:07:53.801Z,99768.14
2019-04-03T02:10:25.269Z,99773.75
2019-04-03T02:12:55.733Z,99763.63
2019-04-03T02:15:26.287Z,99773.47
2019-04-03T02:17:56.809Z,99761.97
2019-04-03T02:20:27.302Z,99757.47
2019-04-03T02:22:59.613Z,99758.59
2019-04-03T02:25:32.127Z,99759.63
2019-04-03T02:28:03.838Z,99759.91
2019-04-03T02:30:34.455Z,99763.30
2019-04-03T02:33:04.947Z,99757.88
2019-04-03T02:35:38.946Z,99755.06
2019-04-03T02:38:08.029Z,99762.97
2019-04-03T02:40:38.615Z,99760.61
2019-04-03T02:43:09.260Z,99760.70
2019-04-03T02:45:39.786Z,99757.25
2019-04-03T02:48:10.255Z,99760.50
2019-04-03T02:50:41.108Z,99763.73
2019-04-03T02:53:11.691Z,99766.32
2019-04-03T02:55:42.236Z,99777.79
2019-04-03T02:58:12.737Z,99778.72
2019-04-03T03:00:43.539Z,99776.61
2019-04-03T03:03:17.240Z,99771.97
2019-04-03T03:05:46.308Z,99772.28
2019-04-03T03:08:17.590Z,99779.20
2019-04-03T03:10:51.724Z,99782.22
2019-04-03T03:13:22.756Z,99785.19
2019-04-03T03:15:53.760Z,99788.27
2019-04-03T03:18:27.192Z,99784.66
2019-04-03T03:20:58.936Z,99783.67
2019-04-03T03:23:29.692Z,99774.95
2019-04-03T03:26:00.282Z,99766.33
2019-04-03T03:28:31.125Z,99760.33
2019-04-03T03:31:04.931Z,99770.09
2019-04-03T03:33:37.901Z,99765.31
2019-04-03T03:36:08.381Z,99771.53
2019-04-03T03:38:40.822Z,99771.05
2019-04-03T03:41:11.597Z,99778.50
2019-04-03T03:43:42.474Z,99782.85
2019-04-03T03:46:13.410Z,99784.88
2019-04-03T03:48:45.658Z,99777.59
2019-04-03T03:51:17.567Z,99783.57
2019-04-03T03:53:49.852Z,99777.08
2019-04-03T03:56:21.585Z,99776.81
2019-04-03T03:58:52.387Z,99769.43
2019-04-03T04:01:23.202Z,99766.33
2019-04-03T04:03:53.865Z,99767.31
2019-04-03T04:06:27.914Z,99763.73
2019-04-03T04:08:56.940Z,99763.02
2019-04-03T04:11:30.837Z,99761.23
2019-04-03T04:14:00.489Z,99763.87
2019-04-03T04:16:31.101Z,99764.67
2019-04-03T04:19:01.597Z,99770.07
2019-04-03T04:21:32.566Z,99770.01
2019-04-03T04:24:03.115Z,99767.98
2019-04-03T04:26:33.883Z,99768.45
2019-04-03T04:29:04.545Z,99772.66
2019-04-03T04:31:35.067Z,99777.86
2019-04-03T04:34:05.612Z,99769.32
2019-04-03T04:36:36.063Z,99769.12
2019-04-03T04:39:08.988Z,99768.52
2019-04-03T04:41:39.460Z,99760.28
2019-04-03T04:44:10.438Z,99758.67
2019-04-03T04:46:43.607Z,99756.11
2019-04-03T04:49:13.377Z,99753.08
2019-04-03T04:51:43.870Z,99755.91
2019-04-03T04:54:14.374Z,99755.41
2019-04-03T04:56:44.943Z,99756.45
2019-04-03T04:59:15.397Z,99760.59
2019-04-03T05:01:47.037Z,99758.47
2019-04-03T05:04:18.136Z,99763.73
2019-04-03T05:06:48.614Z,99768.98
2019-04-03T05:09:19.081Z,99772.30
2019-04-03T05:11:49.595Z,99778.83
2019-04-03T05:14:20.052Z,99779.36
2019-04-03T05:16:50.552Z,99785.86
2019-04-03T05:19:21.250Z,99781.44
2019-04-03T05:21:53.073Z,99787.33
2019-04-03T05:24:23.876Z,99792.17
2019-04-03T05:26:54.403Z,99794.30
2019-04-03T05:29:25.078Z,99799.34
2019-04-03T05:31:55.669Z,99800.73
2019-04-03T05:34:26.165Z,99797.20
2019-04-03T05:36:56.575Z,99794.10
2019-04-03T05:39:27.069Z,99798.59
2019-04-03T05:41:59.312Z,99801.50
2019-04-03T05:44:32.839Z,99798.48
2019-04-03T05:47:02.279Z,99807.59
2019-04-03T05:49:32.894Z,99814.87
2019-04-03T05:52:04.139Z,99811.67
2019-04-03T05:54:35.154Z,99813.27
2019-04-03T05:57:24.750Z,99810.64
2019-04-03T06:00:00.805Z,99811.86
2019-04-03T06:02:27.423Z,99809.09
2019-04-03T06:04:57.941Z,99813.00
2019-04-03T06:07:28.472Z,99814.68
2019-04-03T06:09:59.295Z,99821.39
2019-04-03T06:12:30.032Z,99830.16
2019-04-03T06:15:00.527Z,99835.69
2019-04-03T06:17:31.042Z,99831.02
2019-04-03T06:20:01.397Z,99828.64
2019-04-03T06:22:31.877Z,99834.30
2019-04-03T06:25:02.400Z,99838.64
2019-04-03T06:27:33.093Z,99840.27
2019-04-03T06:30:03.519Z,99836.58
2019-04-03T06:32:34.001Z,99834.78
2019-04-03T06:35:04.664Z,99839.59
2019-04-03T06:37:35.178Z,99847.30
2019-04-03T06:40:06.670Z,99841.15
2019-04-03T06:42:37.158Z,99845.54
2019-04-03T06:45:08.218Z,99841.63
2019-04-03T06:47:38.676Z,99842.16
2019-04-03T06:50:12.212Z,99841.89
2019-04-03T06:52:41.447Z,99847.34
2019-04-03T06:55:11.820Z,99848.38
2019-04-03T06:57:42.368Z,99846.27
2019-04-03T07:00:13.707Z,99843.53
2019-04-03T07:02:44.178Z,99842.52
2019-04-03T07:05:14.646Z,99843.27
2019-04-03T07:07:45.132Z,99846.69
2019-04-03T07:10:25.080Z,99844.78
2019-04-03T07:12:48.572Z,99842.84
2019-04-03T07:15:19.117Z,99847.86
2019-04-03T07:17:49.516Z,99849.09
2019-04-03T07:20:20.845Z,99858.92
2019-04-03T07:22:51.628Z,99857.98
2019-04-03T07:25:22.128Z,99861.70
2019-04-03T07:27:52.908Z,99863.36
2019-04-03T07:30:23.440Z,99866.38
2019-04-03T07:32:57.134Z,99868.31
2019-04-03T07:35:26.083Z,99872.69
2019-04-03T07:37:56.882Z,99874.41
2019-04-03T07:40:27.578Z,99874.44
2019-04-03T07:42:58.601Z,99882.62
2019-04-03T07:45:29.165Z,99881.22
2019-04-03T07:47:59.624Z,99877.11
2019-04-03T07:50:30.123Z,99885.12
2019-04-03T07:53:00.644Z,99890.88
2019-04-03T07:55:31.259Z,99887.63
2019-04-03T07:58:01.705Z,99892.44
2019-04-03T08:00:32.228Z,99898.87
2019-04-03T08:03:02.774Z,99903.21
2019-04-03T08:05:33.267Z,99900.62
2019-04-03T08:08:03.808Z,99904.77
2019-04-03T08:10:37.514Z,99911.73
2019-04-03T08:13:07.580Z,99915.23
2019-04-03T08:15:38.240Z,99909.02
2019-04-03T08:18:08.708Z,99909.02
2019-04-03T08:20:39.383Z,99907.05
2019-04-03T08:23:09.883Z,99905.39
2019-04-03T08:25:42.691Z,99905.42
2019-04-03T08:28:12.517Z,99905.30
2019-04-03T08:30:43.493Z,99898.81
2019-04-03T08:33:17.921Z,99894.73
2019-04-03T08:35:46.509Z,99897.05
2019-04-03T08:38:17.129Z,99899.04
2019-04-03T08:40:47.651Z,99904.19
2019-04-03T08:43:18.160Z,99910.28
2019-04-03T08:45:48.667Z,99913.28
2019-04-03T08:48:19.149Z,99916.12
2019-04-03T08:50:49.829Z,99913.34
2019-04-03T08:53:20.343Z,99911.33
2019-04-03T08:55:50.911Z,99912.83
2019-04-03T08:58:22.105Z,99917.80
2019-04-03T09:00:53.764Z,99912.34
2019-04-03T09:03:24.571Z,99914.14
2019-04-03T09:05:55.871Z,99915.81
2019-04-03T09:08:27.126Z,99913.16
2019-04-03T09:10:57.814Z,99901.56
2019-04-03T09:13:28.290Z,99908.46
2019-04-03T09:16:00.247Z,99903.84
2019-04-03T09:18:31.011Z,99910.52
2019-04-03T09:21:01.591Z,99909.19
2019-04-03T09:23:32.152Z,99906.73
2019-04-03T09:26:03.796Z,99905.38
2019-04-03T09:28:34.370Z,99909.98
2019-04-03T09:31:04.920Z,99904.20
2019-04-03T09:33:35.547Z,99908.84
2019-04-03T09:36:06.411Z,99908.84
2019-04-03T09:38:37.515Z,99908.19
2019-04-03T09:41:08.130Z,99909.87
2019-04-03T09:43:40.011Z,99901.92
2019-04-03T09:46:10.645Z,99904.55
2019-04-03T09:48:41.297Z,99905.88
2019-04-03T09:51:11.878Z,99910.83
2019-04-03T09:53:42.457Z,99902.52
2019-04-03T09:56:13.163Z,99905.07
2019-04-03T09:58:43.695Z,99918.22
2019-04-03T10:01:17.770Z,99903.98
2019-04-03T10:03:46.480Z,99914.47
2019-04-03T10:06:17.609Z,99905.53
2019-04-03T10:08:48.215Z,99909.47
2019-04-03T10:11:20.149Z,99908.42
2019-04-03T10:13:51.347Z,99908.61
2019-04-03T10:16:21.965Z,99913.83
2019-04-03T10:18:52.688Z,99917.87
2019-04-03T10:21:23.643Z,99915.30
2019-04-03T10:23:54.557Z,99910.06
2019-04-03T10:26:25.012Z,99901.76
2019-04-03T10:28:55.904Z,99906.56
2019-04-03T10:31:26.600Z,99904.81
2019-04-03T10:33:57.303Z,99892.88
2019-04-03T10:36:28.564Z,99896.34
2019-04-03T10:38:59.286Z,99900.30
2019-04-03T10:41:29.948Z,99890.91
2019-04-03T10:44:00.474Z,99887.64
2019-04-03T10:46:31.061Z,99892.41
2019-04-03T10:49:02.184Z,99885.77
2019-04-03T10:51:32.905Z,99880.97
2019-04-03T10:54:03.464Z,99884.34
2019-04-03T10:56:34.053Z,99879.61
2019-04-03T10:59:11.537Z,99884.93
2019-04-03T11:01:37.105Z,99878.98
2019-04-03T11:04:07.703Z,99879.36
2019-04-03T11:06:38.270Z,99870.98
2019-04-03T11:09:10.482Z,99878.76
2019-04-03T11:11:43.045Z,99880.59
2019-04-03T11:14:14.307Z,99883.11
2019-04-03T11:16:46.537Z,99884.59
2019-04-03T11:19:19.554Z,99879.13
2019-04-03T11:21:50.029Z,99870.92
2019-04-03T11:24:21.239Z,99869.69
2019-04-03T11:26:52.563Z,99877.23
2019-04-03T11:29:23.945Z,99869.99
2019-04-03T11:31:54.811Z,99859.70
2019-04-03T11:34:25.815Z,99849.13
2019-04-03T11:37:00.003Z,99843.84
2019-04-03T11:39:29.175Z,99838.23
2019-04-03T11:42:00.061Z,99837.23
2019-04-03T11:44:30.769Z,99837.29
2019-04-03T11:47:01.376Z,99834.01
2019-04-03T11:49:32.166Z,99834.36
2019-04-03T11:52:02.906Z,99829.98
2019-04-03T11:54:33.429Z,99832.41
2019-04-03T11:57:04.320Z,99837.38
2019-04-03T11:59:34.883Z,99832.80
2019-04-03T12:02:07.529Z,99827.81
2019-04-03T12:04:38.162Z,99839.73
2019-04-03T12:07:12.044Z,99832.84
2019-04-03T12:09:43.384Z,99828.23
2019-04-03T12:12:14.463Z,99825.89
2019-04-03T12:14:45.087Z,99839.64
2019-04-03T12:17:15.729Z,99831.88
2019-04-03T12:19:46.658Z,99835.70
2019-04-03T12:22:17.436Z,99835.70
2019-04-03T12:24:48.558Z,99831.95
2019-04-03T12:27:19.046Z,99825.52
2019-04-03T12:29:49.903Z,99823.46
2019-04-03T12:32:37.877Z,99828.77
2019-04-03T12:35:04.631Z,99827.63
2019-04-03T12:37:35.155Z,99811.27
2019-04-03T12:40:07.263Z,99805.13
2019-04-03T12:42:38.021Z,99808.92
2019-04-03T12:45:10.896Z,99810.91
2019-04-03T12:47:44.486Z,99813.55
2019-04-03T12:50:15.326Z,99823.80
2019-04-03T12:52:46.027Z,99821.41
2019-04-03T12:55:16.752Z,99816.81
2019-04-03T12:57:47.399Z,99806.00
2019-04-03T13:00:19.360Z,99796.29
2019-04-03T13:02:50.098Z,99805.30
2019-04-03T13:05:22.269Z,99794.64
2019-04-03T13:07:52.769Z,99794.73
2019-04-03T13:10:23.723Z,99797.22
2019-04-03T13:12:56.739Z,99794.42
2019-04-03T13:15:28.455Z,99788.28
2019-04-03T13:18:00.028Z,99787.63
2019-04-03T13:20:30.659Z,99787.05
2019-04-03T13:23:01.178Z,99781.73
2019-04-03T13:25:31.795Z,99788.02
2019-04-03T13:28:04.011Z,99785.31
2019-04-03T13:30:34.781Z,99785.30
2019-04-03T13:33:07.212Z,99780.47
2019-04-03T13:35:37.785Z,99777.20
2019-04-03T13:38:08.487Z,99776.76
2019-04-03T13:40:39.263Z,99776.83
2019-04-03T13:43:09.769Z,99772.13
2019-04-03T13:45:40.365Z,99766.59
2019-04-03T13:48:13.459Z,99767.79
2019-04-03T13:50:45.484Z,99767.78
2019-04-03T13:53:15.975Z,99767.64
2019-04-03T13:55:46.707Z,99767.40
2019-04-03T13:58:17.237Z,99758.23
2019-04-03T14:00:59.029Z,99763.58
2019-04-03T14:03:20.138Z,99762.76
2019-04-03T14:05:50.647Z,99756.74
2019-04-03T14:08:21.353Z,99748.10
2019-04-03T14:10:51.962Z,99744.00
2019-04-03T14:13:22.844Z,99748.75
2019-04-03T14:15:56.037Z,99743.34
2019-04-03T14:18:26.048Z,99746.50
2019-04-03T14:20:57.119Z,99743.05
2019-04-03T14:23:27.781Z,99735.61
2019-04-03T14:26:05.230Z,99730.31
2019-04-03T14:28:33.364Z,99735.66
2019-04-03T14:31:05.026Z,99734.17
2019-04-03T14:33:43.515Z,99735.34
2019-04-03T14:36:07.623Z,99729.05
2019-04-03T14:38:38.106Z,99717.83
2019-04-03T14:41:08.793Z,99719.94
2019-04-03T14:43:39.456Z,99708.87
2019-04-03T14:46:09.981Z,99718.95
2019-04-03T14:48:40.515Z,99712.32
2019-04-03T14:51:12.218Z,99711.84
2019-04-03T14:53:42.862Z,99707.23
2019-04-03T14:56:13.782Z,99711.03
2019-04-03T14:58:44.383Z,99701.84
2019-04-03T15:01:14.922Z,99704.47
2019-04-03T15:03:45.678Z,99721.73
2019-04-03T15:06:19.038Z,99720.78
2019-04-03T15:08:49.624Z,99730.84
2019-04-03T15:11:21.819Z,99731.38
2019-04-03T15:13:52.940Z,99730.38
2019-04-03T15:16:23.502Z,99734.83
2019-04-03T15:18:53.931Z,99732.70
2019-04-03T15:21:25.226Z,99725.39
2019-04-03T15:23:55.880Z,99725.41
2019-04-03T15:26:26.293Z,99715.58
2019-04-03T15:28:56.937Z,99716.72
2019-04-03T15:31:27.608Z,99707.33
2019-04-03T15:33:58.261Z,99710.52
2019-04-03T15:36:28.960Z,99701.70
2019-04-03T15:38:59.915Z,99702.92
2019-04-03T15:41:33.323Z,99698.78
2019-04-03T15:44:02.892Z,99690.75
2019-04-03T15:46:34.295Z,99677.42
2019-04-03T15:49:05.316Z,99672.77
2019-04-03T15:51:38.178Z,99669.02
2019-04-03T15:54:08.162Z,99662.50
2019-04-03T15:56:38.627Z,99662.76
2019-04-03T15:59:10.901Z,99664.09
2019-04-03T16:01:41.444Z,99666.98
2019-04-03T16:04:11.923Z,99668.91
2019-04-03T16:06:42.815Z,99661.85
2019-04-03T16:09:13.473Z,99659.83
2019-04-03T16:11:43.986Z,99656.70
2019-04-03T16:14:14.680Z,99642.77
2019-04-03T16:16:45.178Z,99635.77
2019-04-03T16:19:15.670Z,99637.73
2019-04-03T16:21:46.268Z,99635.17
2019-04-03T16:24:16.859Z,99638.69
2019-04-03T16:26:47.390Z,99640.32
2019-04-03T16:29:17.961Z,99632.83
2019-04-03T16:31:48.458Z,99641.09
2019-04-03T16:34:21.958Z,99639.47
2019-04-03T16:36:52.975Z,99631.52
2019-04-03T16:39:23.626Z,99643.14
2019-04-03T16:41:54.109Z,99648.44
2019-04-03T16:44:26.267Z,99642.68
2019-04-03T16:46:57.027Z,99640.73
2019-04-03T16:49:28.663Z,99635.17
2019-04-03T16:51:59.475Z,99637.58
2019-04-03T16:54:31.902Z,99633.62
2019-04-03T16:57:03.608Z,99639.14
2019-04-03T16:59:36.110Z,99636.48
2019-04-03T17:02:06.737Z,99635.44
2019-04-03T17:04:37.666Z,99641.33
2019-04-03T17:07:09.723Z,99638.03
2019-04-03T17:09:40.950Z,99628.56
2019-04-03T17:12:11.481Z,99634.98
2019-04-03T17:14:42.005Z,99626.72
2019-04-03T17:17:14.367Z,99633.27
2019-04-03T17:20:03.847Z,99633.80
2019-04-03T17:22:34.409Z,99632.92
2019-04-03T17:25:05.139Z,99630.02
2019-04-03T17:27:36.044Z,99632.48
2019-04-03T17:30:08.078Z,99627.69
2019-04-03T17:32:38.776Z,99630.02
2019-04-03T17:35:09.943Z,99633.78
2019-04-03T17:37:40.505Z,99637.15
2019-04-03T17:40:12.615Z,99642.13
2019-04-03T17:42:43.207Z,99638.16
2019-04-03T17:45:16.214Z,99641.95
2019-04-03T17:47:49.374Z,99638.31
2019-04-03T17:50:19.002Z,99649.23
2019-04-03T17:52:49.510Z,99650.69
2019-04-03T17:55:19.959Z,99649.03
2019-04-03T17:57:50.489Z,99658.55
2019-04-03T18:00:23.110Z,99659.34
2019-04-03T18:02:53.596Z,99663.09
2019-04-03T18:05:25.621Z,99671.33
2019-04-03T18:07:58.645Z,99670.66
2019-04-03T18:10:28.646Z,99673.55
2019-04-03T18:12:59.137Z,99669.54
2019-04-03T18:15:29.609Z,99663.55
2019-04-03T18:18:00.998Z,99668.80
2019-04-03T18:20:32.388Z,99670.63
2019-04-03T18:23:02.924Z,99671.11
2019-04-03T18:25:33.483Z,99673.42
2019-04-03T18:28:05.436Z,99674.26
2019-04-03T18:30:36.078Z,99665.41
2019-04-03T18:33:06.645Z,99671.88
2019-04-03T18:35:37.142Z,99668.70
2019-04-03T18:38:08.554Z,99663.24
2019-04-03T18:40:39.190Z,99659.34
2019-04-03T18:43:09.750Z,99668.19
2019-04-03T18:45:40.217Z,99659.56
2019-04-03T18:48:10.885Z,99657.94
2019-04-03T18:50:41.393Z,99654.26
2019-04-03T18:53:11.925Z,99661.81
2019-04-03T18:55:44.631Z,99664.76
2019-04-03T18:58:14.636Z,99659.60
2019-04-03T19:00:45.167Z,99668.17
2019-04-03T19:03:15.689Z,99657.09
2019-04-03T19:05:46.290Z,99658.85
2019-04-03T19:08:18.110Z,99667.87
2019-04-03T19:11:01.316Z,99661.75
2019-04-03T19:13:21.302Z,99658.60
2019-04-03T19:15:51.808Z,99651.83
2019-04-03T19:18:22.354Z,99650.33
2019-04-03T19:20:52.885Z,99651.39
2019-04-03T19:23:23.452Z,99651.05
2019-04-03T19:25:53.974Z,99649.38
2019-04-03T19:28:24.530Z,99645.05
2019-04-03T19:31:04.173Z,99646.08
2019-04-03T19:33:34.592Z,99648.42
2019-04-03T19:36:05.179Z,99636.94
2019-04-03T19:38:36.317Z,99641.16
2019-04-03T19:41:06.851Z,99634.33
2019-04-03T19:43:37.383Z,99630.37
2019-04-03T19:46:08.007Z,99636.00
2019-04-03T19:48:38.522Z,99632.53
2019-04-03T19:51:09.012Z,99613.11
2019-04-03T19:53:39.507Z,99602.92
2019-04-03T19:56:10.002Z,99583.06
2019-04-03T19:58:40.474Z,99569.22
2019-04-03T20:01:10.990Z,99577.31
2019-04-03T20:03:44.095Z,99585.66
2019-04-03T20:06:13.820Z,99574.06
2019-04-03T20:08:44.281Z,99571.91
2019-04-03T20:11:14.732Z,99580.92
2019-04-03T20:13:45.456Z,99586.19
2019-04-03T20:16:15.930Z,99593.41
2019-04-03T20:18:46.409Z,99588.39
2019-04-03T20:21:16.853Z,99579.83
2019-04-03T20:23:48.637Z,99577.55
2019-04-03T20:26:19.105Z,99575.51
2019-04-03T20:28:49.516Z,99557.58
2019-04-03T20:31:20.057Z,99552.16
2019-04-03T20:33:50.589Z,99546.85
2019-04-03T20:36:21.039Z,99552.78
2019-04-03T20:38:51.558Z,99544.88
2019-04-03T20:41:22.068Z,99539.86
2019-04-03T20:43:52.615Z,99531.89
2019-04-03T20:46:23.957Z,99530.28
2019-04-03T20:48:54.896Z,99529.30
2019-04-03T20:51:25.393Z,99512.23
2019-04-03T20:53:55.942Z,99517.08
2019-04-03T20:56:27.117Z,99505.41
2019-04-03T20:58:58.644Z,99488.50
2019-04-03T21:01:29.141Z,99483.13
2019-04-03T21:03:59.699Z,99480.16
2019-04-03T21:06:30.213Z,99496.88
2019-04-03T21:09:00.742Z,99507.38
2019-04-03T21:11:32.636Z,99517.80
2019-04-03T21:14:05.574Z,99522.38
2019-04-03T21:16:35.824Z,99509.72
2019-04-03T21:19:06.348Z,99506.06
2019-04-03T21:21:36.841Z,99510.25
2019-04-03T21:24:07.399Z,99505.36
2019-04-03T21:26:57.362Z,99487.84
2019-04-03T21:29:27.836Z,99487.72
2019-04-03T21:31:58.449Z,99502.52
2019-04-03T21:34:28.926Z,99513.05
2019-04-03T21:36:59.513Z,99513.99
2019-04-03T21:39:30.080Z,99500.17
2019-04-03T21:42:00.645Z,99507.04
2019-04-03T21:44:31.913Z,99505.83
2019-04-03T21:47:03.031Z,99492.71
2019-04-03T21:49:33.542Z,99496.33
2019-04-03T21:52:04.203Z,99485.33
2019-04-03T21:54:34.686Z,99470.61
2019-04-03T21:57:06.764Z,99460.91
2019-04-03T21:59:37.527Z,99456.95
2019-04-03T22:02:08.003Z,99453.96
2019-04-03T22:04:38.577Z,99446.16
2019-04-03T22:07:09.126Z,99449.31
2019-04-03T22:09:39.634Z,99446.08
2019-04-03T22:12:10.464Z,99448.09
2019-04-03T22:14:42.744Z,99439.69
2019-04-03T22:17:13.189Z,99425.65
2019-04-03T22:19:43.679Z,99422.21
2019-04-03T22:22:14.267Z,99427.33
2019-04-03T22:24:44.745Z,99426.44
2019-04-03T22:27:15.273Z,99422.50
2019-04-03T22:29:45.788Z,99412.11
2019-04-03T22:32:16.312Z,99406.33
2019-04-03T22:34:46.844Z,99395.77
2019-04-03T22:37:17.425Z,99392.05
2019-04-03T22:39:47.934Z,99379.88
2019-04-03T22:42:18.454Z,99385.53
2019-04-03T22:44:49.022Z,99387.77
2019-04-03T22:47:19.519Z,99386.83
2019-04-03T22:49:50.031Z,99382.84
2019-04-03T22:52:20.654Z,99380.17
2019-04-03T22:54:51.181Z,99373.63
2019-04-03T22:57:21.685Z,99365.33
2019-04-03T22:59:54.471Z,99356.57
2019-04-03T23:02:24.348Z,99358.84
2019-04-03T23:04:54.893Z,99362.13
2019-04-03T23:07:25.383Z,99353.02
2019-04-03T23:09:56.779Z,99347.00
2019-04-03T23:12:27.675Z,99333.11
2019-04-03T23:14:58.219Z,99334.41
2019-04-03T23:17:28.724Z,99323.81
2019-04-03T23:19:59.287Z,99312.66
2019-04-03T23:22:29.847Z,99313.92
2019-04-03T23:25:00.418Z,99304.86
2019-04-03T23:27:32.787Z,99313.00
2019-04-03T23:30:03.206Z,99322.34
2019-04-03T23:32:33.751Z,99322.23
2019-04-03T23:35:04.328Z,99312.55
2019-04-03T23:37:34.777Z,99290.87
2019-04-03T23:40:05.818Z,99300.59
2019-04-03T23:42:37.836Z,99296.20
2019-04-03T23:45:08.802Z,99295.36
2019-04-03T23:47:39.291Z,99369.63
2019-04-03T23:50:10.283Z,99453.50
2019-04-03T23:52:40.802Z,99432.83
2019-04-03T23:55:11.798Z,99437.84
2019-04-03T23:57:42.309Z,99496.23
